Time;durP1;ratioP1;P1;durP2;ratioP2;P2;SDS_P1;SDS_P2;PMS_P1;PMS_P2;Temp;Humidity;BMP_temperature;BMP_pressure;BME280_temperature;BME280_humidity;BME280_pressure;Samples;Min_cycle;Max_cycle;Signal;HPM_P1;HPM_P2
2023/02/27 12:40:37;;;;;;;3.60;0.98;;;4.70;99.90;;;;;;5114884;27;20384;-68
2023/02/27 12:43:27;;;;;;;3.92;1.17;;;5.00;99.90;;;;;;5093906;28;25050;-68
2023/02/27 12:46:23;;;;;;;2.47;0.93;;;5.10;99.90;;;;;;5094378;28;25126;-68
2023/02/27 12:49:12;;;;;;;3.38;1.10;;;5.10;99.90;;;;;;5062323;28;25080;-68
2023/02/27 12:52:08;;;;;;;1.45;0.80;;;5.10;99.90;;;;;;5074131;28;25116;-71
2023/02/27 12:55:08;;;;;;;5.15;1.08;;;5.00;99.90;;;;;;5073486;28;25062;-71
2023/02/27 12:57:49;;;;;;;3.90;1.17;;;5.00;99.90;;;;;;5073683;28;25092;-71
2023/02/27 13:00:18;;;;;;;6.65;1.67;;;4.70;99.90;;;;;;5073671;28;25123;-71
2023/02/27 13:03:13;;;;;;;5.25;1.67;;;4.50;99.90;;;;;;5073479;28;25073;-71
2023/02/27 13:06:14;;;;;;;4.88;1.58;;;4.40;99.90;;;;;;5055529;28;25076;-73
2023/02/27 13:08:42;;;;;;;3.28;1.60;;;4.30;99.90;;;;;;5055383;28;25046;-73
2023/02/27 13:11:31;;;;;;;6.07;2.15;;;4.20;99.90;;;;;;5073712;28;25078;-73
2023/02/27 13:14:12;;;;;;;5.93;1.30;;;4.10;99.90;;;;;;5055332;28;25077;-74
2023/02/27 13:16:55;;;;;;;6.88;1.33;;;4.10;99.90;;;;;;5073553;28;25064;-74
2023/02/27 13:19:37;;;;;;;3.58;1.17;;;4.10;99.90;;;;;;5072826;28;25070;-72
2023/02/27 13:22:21;;;;;;;5.55;1.75;;;4.00;99.90;;;;;;5072826;28;25073;-72
2023/02/27 13:24:51;;;;;;;4.30;1.40;;;4.10;99.90;;;;;;5073386;28;25052;-74
2023/02/27 13:27:33;;;;;;;2.25;1.00;;;4.10;99.90;;;;;;5072835;28;25064;-72
2023/02/27 13:30:04;;;;;;;2.90;1.50;;;4.10;99.90;;;;;;5072755;28;25075;-73
2023/02/27 13:32:49;;;;;;;4.13;1.80;;;4.10;99.90;;;;;;5072582;28;25076;-80
2023/02/27 13:35:38;;;;;;;3.08;1.25;;;4.20;99.90;;;;;;5072050;28;25056;-73
2023/02/27 13:38:43;;;;;;;2.75;1.35;;;4.20;99.90;;;;;;5071580;28;25088;-74
2023/02/27 13:41:37;;;;;;;3.10;1.20;;;4.30;99.90;;;;;;5035054;28;25063;-73
2023/02/27 13:44:38;;;;;;;5.72;1.90;;;4.30;99.90;;;;;;5052534;28;25058;-73
2023/02/27 13:47:29;;;;;;;4.80;1.13;;;4.40;99.90;;;;;;5035579;28;25102;-74
2023/02/27 13:50:02;;;;;;;2.85;1.13;;;4.50;99.90;;;;;;5049064;28;25098;-77
2023/02/27 13:52:35;;;;;;;5.82;1.33;;;4.50;99.90;;;;;;5039082;28;25051;-79
2023/02/27 13:55:27;;;;;;;2.92;1.00;;;4.50;99.90;;;;;;5021188;28;25052;-77
2023/02/27 13:57:58;;;;;;;6.13;1.63;;;4.50;99.90;;;;;;5038088;28;25128;-79
2023/02/27 14:00:29;;;;;;;3.47;1.17;;;4.50;99.90;;;;;;5021548;28;25106;-80
2023/02/27 14:03:05;;;;;;;2.25;1.05;;;4.60;99.90;;;;;;5020636;28;25063;-79
2023/02/27 14:05:45;;;;;;;7.20;1.45;;;4.70;99.90;;;;;;5039248;28;25066;-80
2023/02/27 14:08:20;;;;;;;2.95;0.88;;;4.80;99.90;;;;;;5021247;28;25105;-81
2023/02/27 14:11:08;;;;;;;3.40;0.93;;;4.90;99.90;;;;;;5021426;28;25120;-77
2023/02/27 14:13:53;;;;;;;5.93;1.30;;;5.00;99.90;;;;;;5038900;28;25060;-79
2023/02/27 14:16:39;;;;;;;4.45;1.25;;;5.10;99.90;;;;;;5020950;28;25075;-79
2023/02/27 14:19:21;;;;;;;3.28;1.10;;;5.40;99.90;;;;;;5021052;28;25117;-77
2023/02/27 14:21:53;;;;;;;4.35;1.10;;;5.80;99.90;;;;;;5038806;28;25144;-79
2023/02/27 14:24:26;;;;;;;7.20;1.85;;;6.70;99.90;;;;;;5020922;28;25054;-77
2023/02/27 14:26:54;;;;;;;3.08;1.20;;;7.70;98.20;;;;;;5020589;28;25106;-79
2023/02/27 14:29:32;;;;;;;4.22;2.00;;;8.80;95.00;;;;;;5020574;28;25076;-79
2023/02/27 14:32:07;;;;;;;3.20;1.33;;;9.70;91.90;;;;;;5038692;28;25073;-87
2023/02/27 14:34:37;;;;;;;2.58;0.80;;;10.40;87.30;;;;;;5038491;28;24988;-77
2023/02/27 14:37:11;;;;;;;4.85;1.60;;;10.90;81.70;;;;;;5038330;28;25104;-78
2023/02/27 14:39:39;;;;;;;3.97;1.52;;;11.40;78.80;;;;;;5044377;28;25116;-77
2023/02/27 14:42:38;;;;;;;4.35;1.20;;;11.40;75.30;;;;;;5058750;28;25063;-79
2023/02/27 14:45:15;;;;;;;5.57;1.50;;;11.90;73.50;;;;;;5058399;28;25056;-80
2023/02/27 14:47:42;;;;;;;2.95;1.50;;;12.10;71.60;;;;;;5056841;28;25124;-77
2023/02/27 14:50:33;;;;;;;3.20;1.40;;;11.80;70.40;;;;;;5058283;28;25090;-77
2023/02/27 14:53:03;;;;;;;7.03;2.22;;;10.90;71.10;;;;;;5058232;28;25128;-77
2023/02/27 14:55:35;;;;;;;5.18;1.52;;;10.00;73.50;;;;;;5058354;28;25073;-77
2023/02/27 14:58:17;;;;;;;3.33;1.00;;;9.20;75.20;;;;;;5058112;28;25092;-77
2023/02/27 15:00:51;;;;;;;3.35;1.40;;;8.90;77.40;;;;;;5056965;28;25109;-76
2023/02/27 15:03:27;;;;;;;8.43;1.95;;;8.50;78.60;;;;;;5055626;28;25088;-76
2023/02/27 15:06:05;;;;;;;8.70;2.08;;;8.00;79.80;;;;;;5057745;28;25063;-75
2023/02/27 15:08:39;;;;;;;3.72;1.08;;;7.50;81.90;;;;;;5057670;28;25138;-75
2023/02/27 15:11:08;;;;;;;5.25;1.67;;;7.00;83.70;;;;;;5056740;28;25055;-75
2023/02/27 15:13:38;;;;;;;4.45;1.30;;;6.60;85.60;;;;;;5056477;28;25062;-75
2023/02/27 15:16:23;;;;;;;6.28;1.27;;;6.20;87.00;;;;;;5057586;28;25062;-78
2023/02/27 15:18:58;;;;;;;5.90;1.42;;;5.90;89.60;;;;;;5057424;28;25118;-74
2023/02/27 15:21:30;;;;;;;4.20;1.80;;;5.90;90.40;;;;;;5057808;28;25105;-75
2023/02/27 15:24:00;;;;;;;4.57;1.63;;;5.90;90.30;;;;;;5057361;28;25114;-75
2023/02/27 15:26:30;;;;;;;3.35;1.38;;;5.80;90.50;;;;;;5056296;28;25097;-75
2023/02/27 15:29:01;;;;;;;30.65;11.45;;;5.50;90.90;;;;;;5057280;28;25064;-75
2023/02/27 15:31:30;;;;;;;4.97;1.55;;;5.30;91.30;;;;;;5057692;28;25157;-75
2023/02/27 15:34:00;;;;;;;4.65;1.98;;;5.10;91.90;;;;;;5057139;28;25067;-74
2023/02/27 15:36:46;;;;;;;4.45;1.65;;;4.90;92.50;;;;;;5056180;28;25067;-74
2023/02/27 15:39:22;;;;;;;7.57;1.87;;;4.80;93.20;;;;;;5047013;28;25125;-78
2023/02/27 15:41:55;;;;;;;2.80;1.23;;;4.60;93.50;;;;;;5037305;28;25091;-75
2023/02/27 15:44:41;;;;;;;4.32;1.23;;;4.40;93.90;;;;;;5037035;28;25098;-74
2023/02/27 15:47:15;;;;;;;3.28;1.23;;;4.30;94.40;;;;;;5019523;28;25063;-75
2023/02/27 15:49:43;;;;;;;8.57;3.53;;;4.20;94.90;;;;;;5037392;28;25094;-76
2023/02/27 15:52:21;;;;;;;3.88;1.27;;;4.10;95.40;;;;;;5037218;28;25060;-74
2023/02/27 15:55:04;;;;;;;9.52;2.40;;;4.00;96.00;;;;;;5019404;28;25059;-74
2023/02/27 15:57:32;;;;;;;3.28;1.45;;;4.00;96.40;;;;;;5036748;28;25063;-73
2023/02/27 16:00:00;;;;;;;4.85;1.20;;;4.00;96.90;;;;;;5019123;28;25124;-73
2023/02/27 16:02:48;;;;;;;6.88;1.42;;;3.90;96.90;;;;;;5036916;28;25088;-74
2023/02/27 16:05:31;;;;;;;2.92;1.13;;;3.90;97.10;;;;;;5037235;28;25120;-77
2023/02/27 16:08:01;;;;;;;9.02;2.45;;;3.90;97.40;;;;;;5036663;28;25093;-84
2023/02/27 16:10:38;;;;;;;10.77;4.00;;;3.90;97.60;;;;;;5036655;28;25133;-83
2023/02/27 16:13:28;;;;;;;5.13;1.42;;;3.80;97.80;;;;;;5036893;28;25086;-76
2023/02/27 16:16:06;;;;;;;2.55;1.08;;;3.80;98.20;;;;;;5036944;28;25137;-80
2023/02/27 16:18:45;;;;;;;2.42;0.90;;;3.70;98.40;;;;;;5018968;28;25110;-73
2023/02/27 16:21:19;;;;;;;3.17;1.17;;;3.70;98.30;;;;;;5018936;28;25080;-72
2023/02/27 16:23:47;;;;;;;3.15;1.08;;;3.70;98.40;;;;;;5036943;28;25070;-71
2023/02/27 16:26:35;;;;;;;2.75;1.10;;;3.60;98.60;;;;;;5036547;28;25139;-74
2023/02/27 16:29:18;;;;;;;3.47;1.20;;;3.50;99.00;;;;;;5037006;28;25059;-73
2023/02/27 16:31:51;;;;;;;2.10;1.00;;;3.40;99.40;;;;;;5036282;28;25127;-74
2023/02/27 16:34:28;;;;;;;3.55;1.13;;;3.30;99.70;;;;;;5036231;28;25064;-74
2023/02/27 16:37:03;;;;;;;2.42;1.00;;;3.30;99.90;;;;;;5036769;28;25075;-74
2023/02/27 16:39:31;;;;;;;2.53;1.02;;;3.20;99.90;;;;;;5039670;28;25074;-73
2023/02/27 16:42:00;;;;;;;6.93;2.33;;;3.10;99.90;;;;;;5056113;28;25072;-73
2023/02/27 16:44:28;;;;;;;2.75;1.08;;;3.00;99.90;;;;;;5056175;28;25098;-71
2023/02/27 16:46:57;;;;;;;3.45;1.70;;;2.90;99.90;;;;;;5056170;28;25133;-71
2023/02/27 16:49:27;;;;;;;8.13;4.15;;;2.80;99.90;;;;;;5056053;28;25065;-71
2023/02/27 16:51:55;;;;;;;11.32;4.25;;;2.70;99.90;;;;;;5056101;28;25092;-71
2023/02/27 16:54:23;;;;;;;4.03;2.03;;;2.70;99.90;;;;;;5056384;28;25074;-71
2023/02/27 16:56:51;;;;;;;4.90;1.80;;;2.60;99.90;;;;;;5055129;28;25075;-73
2023/02/27 16:59:35;;;;;;;7.25;2.20;;;2.50;99.90;;;;;;5054857;28;25075;-73
2023/02/27 17:02:12;;;;;;;9.15;2.00;;;2.40;99.90;;;;;;5056272;28;25144;-73
2023/02/27 17:04:42;;;;;;;7.65;1.92;;;2.30;99.90;;;;;;5056170;28;25121;-73
2023/02/27 17:07:14;;;;;;;5.57;1.88;;;2.30;99.90;;;;;;5056252;28;25097;-73
2023/02/27 17:09:43;;;;;;;8.38;2.28;;;2.20;99.90;;;;;;5056009;28;25054;-73
2023/02/27 17:12:12;;;;;;;3.05;1.60;;;2.20;99.90;;;;;;5055927;28;25099;-73
2023/02/27 17:14:39;;;;;;;4.55;1.67;;;2.10;99.90;;;;;;5054830;28;25079;-73
2023/02/27 17:17:07;;;;;;;3.05;1.45;;;2.10;99.90;;;;;;5054805;28;25091;-73
2023/02/27 17:19:34;;;;;;;6.75;1.50;;;2.10;99.90;;;;;;5055925;28;25075;-73
2023/02/27 17:22:02;;;;;;;4.03;2.13;;;2.00;99.90;;;;;;5055741;28;25099;-73
2023/02/27 17:24:29;;;;;;;6.18;2.78;;;2.00;99.90;;;;;;5054723;28;25055;-71
2023/02/27 17:26:57;;;;;;;5.18;2.10;;;2.00;99.90;;;;;;5059164;28;25059;-71
2023/02/27 17:29:24;;;;;;;3.92;1.77;;;2.00;99.90;;;;;;5059736;28;25069;-71
2023/02/27 17:31:52;;;;;;;2.33;1.00;;;1.90;99.90;;;;;;5058601;28;25047;-73
2023/02/27 17:34:19;;;;;;;4.15;1.70;;;1.90;99.90;;;;;;5059436;28;25085;-73
2023/02/27 17:36:48;;;;;;;3.55;1.23;;;1.90;99.90;;;;;;5059435;28;25047;-73
2023/02/27 17:39:15;;;;;;;7.55;2.10;;;1.90;99.90;;;;;;5049257;28;25058;-73
2023/02/27 17:41:44;;;;;;;8.40;1.73;;;1.90;99.90;;;;;;5040071;28;25073;-73
2023/02/27 17:44:12;;;;;;;5.90;1.25;;;1.80;99.90;;;;;;5039297;28;25072;-73
2023/02/27 17:46:47;;;;;;;2.92;0.90;;;1.80;99.90;;;;;;5021729;28;25070;-73
2023/02/27 17:49:21;;;;;;;3.92;1.40;;;1.80;99.90;;;;;;5039466;28;25104;-73
2023/02/27 17:51:48;;;;;;;5.28;1.02;;;1.70;99.90;;;;;;5021788;28;25067;-73
2023/02/27 17:54:16;;;;;;;2.95;1.10;;;1.70;99.90;;;;;;5039134;28;25087;-73
2023/02/27 17:56:43;;;;;;;5.00;1.25;;;1.70;99.90;;;;;;5039143;28;25156;-71
2023/02/27 17:59:10;;;;;;;5.18;0.98;;;1.60;99.90;;;;;;5021397;28;25064;-71
2023/02/27 18:01:37;;;;;;;4.93;1.65;;;1.60;99.90;;;;;;5039747;28;25077;-71
2023/02/27 18:04:06;;;;;;;3.50;1.20;;;1.60;99.90;;;;;;5039028;28;25047;-73
2023/02/27 18:06:34;;;;;;;1.77;0.80;;;1.50;99.90;;;;;;5021078;28;25065;-73
2023/02/27 18:09:03;;;;;;;2.75;1.33;;;1.50;99.90;;;;;;5039391;28;25064;-73
2023/02/27 18:11:30;;;;;;;2.92;1.00;;;1.40;99.90;;;;;;5039008;28;25066;-73
2023/02/27 18:13:59;;;;;;;3.60;1.10;;;1.40;99.90;;;;;;5039321;28;25092;-73
2023/02/27 18:16:27;;;;;;;6.32;1.23;;;1.30;99.90;;;;;;5038748;28;25081;-73
2023/02/27 18:18:54;;;;;;;3.05;1.23;;;1.30;99.90;;;;;;5039091;28;25123;-72
2023/02/27 18:21:23;;;;;;;2.55;0.98;;;1.30;99.90;;;;;;5038803;28;25073;-73
2023/02/27 18:23:51;;;;;;;3.45;1.05;;;1.30;99.90;;;;;;5039150;28;25129;-73
2023/02/27 18:26:24;;;;;;;4.63;1.23;;;1.30;99.90;;;;;;5039130;28;25073;-73
2023/02/27 18:28:52;;;;;;;5.45;1.15;;;1.30;99.90;;;;;;5020937;28;25075;-73
2023/02/27 18:31:22;;;;;;;5.10;1.42;;;1.20;99.90;;;;;;5038728;28;25077;-73
2023/02/27 18:33:50;;;;;;;9.13;2.35;;;1.20;99.90;;;;;;5038615;28;25048;-73
2023/02/27 18:36:19;;;;;;;5.03;2.15;;;1.10;99.90;;;;;;5020675;28;25114;-73
2023/02/27 18:38:46;;;;;;;5.28;1.80;;;1.10;99.90;;;;;;5038307;28;25080;-73
2023/02/27 18:41:14;;;;;;;3.60;1.70;;;1.00;99.90;;;;;;5038280;28;25124;-73
2023/02/27 18:43:42;;;;;;;7.07;2.28;;;0.90;99.90;;;;;;5038806;28;25112;-73
2023/02/27 18:46:11;;;;;;;5.00;2.45;;;0.90;99.90;;;;;;5038313;28;25066;-73
2023/02/27 18:48:40;;;;;;;6.68;2.50;;;0.80;99.90;;;;;;5038001;28;25067;-73
2023/02/27 18:51:11;;;;;;;7.90;2.47;;;0.80;99.90;;;;;;5038680;28;25076;-73
2023/02/27 18:53:43;;;;;;;4.25;2.20;;;0.80;99.90;;;;;;5020510;28;25103;-73
2023/02/27 18:56:12;;;;;;;4.82;3.05;;;0.80;99.90;;;;;;5038167;28;25100;-73
2023/02/27 18:58:40;;;;;;;6.18;3.30;;;0.80;99.90;;;;;;5037914;28;25115;-73
2023/02/27 19:01:18;;;;;;;8.82;3.00;;;0.80;99.90;;;;;;5037950;28;25097;-73
2023/02/27 19:03:46;;;;;;;6.18;2.90;;;0.80;99.90;;;;;;5038340;28;25078;-73
2023/02/27 19:06:13;;;;;;;8.40;3.10;;;0.80;99.90;;;;;;5037908;28;25068;-73
2023/02/27 19:08:40;;;;;;;6.97;3.47;;;0.80;99.90;;;;;;5020197;28;25108;-73
2023/02/27 19:11:08;;;;;;;6.75;3.10;;;0.80;99.90;;;;;;5037713;28;25109;-73
2023/02/27 19:13:35;;;;;;;7.88;3.05;;;0.80;99.90;;;;;;5037640;28;25097;-73
2023/02/27 19:16:04;;;;;;;6.00;2.95;;;0.80;99.90;;;;;;5020179;28;25072;-73
2023/02/27 19:18:31;;;;;;;7.47;2.50;;;0.80;99.90;;;;;;5037546;28;25130;-73
2023/02/27 19:21:04;;;;;;;9.15;2.72;;;0.80;99.90;;;;;;5019980;28;25085;-73
2023/02/27 19:23:31;;;;;;;6.15;2.25;;;0.80;99.90;;;;;;5019913;28;25058;-73
2023/02/27 19:26:02;;;;;;;4.97;2.38;;;0.70;99.90;;;;;;5037880;28;25085;-73
2023/02/27 19:28:29;;;;;;;3.80;1.98;;;0.80;99.90;;;;;;5019821;28;25057;-73
2023/02/27 19:30:57;;;;;;;5.47;3.10;;;0.80;99.90;;;;;;5037877;28;25056;-73
2023/02/27 19:33:24;;;;;;;9.48;3.63;;;0.70;99.90;;;;;;5037187;28;25066;-73
2023/02/27 19:35:51;;;;;;;8.45;4.30;;;0.80;99.90;;;;;;5037920;28;25126;-73
2023/02/27 19:38:18;;;;;;;6.65;3.25;;;0.70;99.90;;;;;;5036990;28;25092;-73
2023/02/27 19:40:46;;;;;;;8.48;3.33;;;0.70;99.90;;;;;;5037162;28;25069;-72
2023/02/27 19:43:14;;;;;;;5.75;2.78;;;0.70;99.90;;;;;;5019560;28;25106;-73
2023/02/27 19:45:42;;;;;;;6.18;2.42;;;0.70;99.90;;;;;;5037590;28;25105;-73
2023/02/27 19:48:10;;;;;;;9.05;2.65;;;0.80;99.90;;;;;;5036431;28;25057;-73
2023/02/27 19:50:39;;;;;;;2.80;1.58;;;0.80;99.90;;;;;;5037546;28;25090;-73
2023/02/27 19:53:07;;;;;;;4.43;1.48;;;0.80;99.90;;;;;;5019345;28;25065;-73
2023/02/27 19:55:34;;;;;;;4.97;1.27;;;0.80;99.90;;;;;;5037431;28;25124;-73
2023/02/27 19:58:10;;;;;;;6.68;2.20;;;0.70;99.90;;;;;;5019301;28;25069;-73
2023/02/27 20:00:38;;;;;;;;;;;0.70;99.90;;;;;;5038159;28;25096;-73
2023/02/27 20:03:06;;;;;;;15.57;5.43;;;0.70;99.90;;;;;;5036994;28;25125;-73
2023/02/27 20:05:38;;;;;;;8.93;2.60;;;0.60;99.90;;;;;;5037294;28;25058;-73
2023/02/27 20:08:05;;;;;;;4.15;1.95;;;0.50;99.90;;;;;;5019127;28;25049;-73
2023/02/27 20:10:33;;;;;;;17.63;5.85;;;0.40;99.90;;;;;;5019327;28;25068;-73
2023/02/27 20:13:01;;;;;;;12.77;4.18;;;0.30;99.90;;;;;;5037180;28;25087;-73
2023/02/27 20:15:29;;;;;;;6.55;1.80;;;0.20;99.90;;;;;;5036622;28;25068;-73
2023/02/27 20:17:56;;;;;;;5.85;2.00;;;0.10;99.90;;;;;;5018922;28;25064;-73
2023/02/27 20:20:24;;;;;;;3.92;1.85;;;0.10;99.90;;;;;;5018892;28;25095;-73
2023/02/27 20:22:51;;;;;;;3.60;1.65;;;0.10;99.90;;;;;;5036493;28;25043;-73
2023/02/27 20:25:18;;;;;;;4.57;2.55;;;0.10;99.90;;;;;;5036654;28;25066;-72
2023/02/27 20:27:46;;;;;;;5.45;1.63;;;0.10;99.90;;;;;;5018858;28;25062;-72
2023/02/27 20:30:13;;;;;;;6.22;1.73;;;0.00;99.90;;;;;;5036720;28;25058;-72
2023/02/27 20:32:41;;;;;;;4.05;1.65;;;0.00;99.90;;;;;;5018839;28;25063;-72
2023/02/27 20:35:09;;;;;;;3.58;1.83;;;-0.10;99.90;;;;;;5036553;28;25141;-75
2023/02/27 20:37:38;;;;;;;3.75;1.52;;;-0.10;99.90;;;;;;5036263;28;25087;-72
2023/02/27 20:40:07;;;;;;;2.92;1.42;;;-0.10;99.90;;;;;;5038372;28;25116;-72
2023/02/27 20:42:35;;;;;;;7.15;1.60;;;-0.10;99.90;;;;;;5036806;28;25096;-72
2023/02/27 20:45:04;;;;;;;3.97;1.35;;;-0.10;99.90;;;;;;5036453;28;25054;-72
2023/02/27 20:47:31;;;;;;;4.68;1.33;;;-0.10;99.90;;;;;;5036385;28;25103;-72
2023/02/27 20:49:59;;;;;;;2.33;1.20;;;-0.10;99.90;;;;;;5036793;28;25073;-72
2023/02/27 20:52:26;;;;;;;2.40;1.17;;;-0.10;99.90;;;;;;5018687;28;25106;-72
2023/02/27 20:54:54;;;;;;;3.85;1.13;;;-0.10;99.90;;;;;;5036868;28;25054;-72
2023/02/27 20:57:22;;;;;;;2.13;0.98;;;-0.10;99.90;;;;;;5018555;28;25077;-72
2023/02/27 20:59:49;;;;;;;2.92;1.05;;;-0.10;99.90;;;;;;5036127;28;25058;-72
2023/02/27 21:02:16;;;;;;;5.10;1.25;;;-0.20;99.90;;;;;;5022416;28;25061;-72
2023/02/27 21:04:45;;;;;;;4.97;1.30;;;-0.30;99.90;;;;;;5040356;28;25075;-72
2023/02/27 21:07:15;;;;;;;6.88;1.65;;;-0.30;99.90;;;;;;5040581;28;25055;-72
2023/02/27 21:09:43;;;;;;;3.70;1.60;;;-0.40;99.90;;;;;;5039984;28;25061;-72
2023/02/27 21:12:11;;;;;;;4.05;1.70;;;-0.40;99.90;;;;;;5039917;28;25071;-72
2023/02/27 21:14:39;;;;;;;3.35;1.98;;;-0.50;99.90;;;;;;5039960;28;25052;-72
2023/02/27 21:17:06;;;;;;;4.13;1.67;;;-0.60;99.90;;;;;;5040379;28;25121;-72
2023/02/27 21:19:35;;;;;;;4.75;1.95;;;-0.60;99.90;;;;;;5039846;28;25061;-72
2023/02/27 21:22:03;;;;;;;2.90;0.95;;;-0.70;99.90;;;;;;5022176;28;25069;-72
2023/02/27 21:24:31;;;;;;;3.08;1.73;;;-0.80;99.90;;;;;;5039742;28;25058;-72
2023/02/27 21:26:58;;;;;;;4.63;1.70;;;-0.80;99.90;;;;;;5040203;28;25055;-72
2023/02/27 21:29:26;;;;;;;2.92;1.55;;;-0.90;99.90;;;;;;5039806;28;25077;-72
2023/02/27 21:31:53;;;;;;;3.75;1.20;;;-0.90;99.90;;;;;;5021988;28;25113;-72
2023/02/27 21:34:28;;;;;;;3.63;1.60;;;-1.00;99.90;;;;;;5039530;28;25063;-72
2023/02/27 21:36:55;;;;;;;3.28;1.58;;;-1.00;99.90;;;;;;5040029;28;25077;-72
2023/02/27 21:39:27;;;;;;;2.55;1.17;;;-1.10;99.90;;;;;;5039790;28;25079;-72
2023/02/27 21:41:54;;;;;;;5.47;1.70;;;-1.10;99.90;;;;;;5039946;28;25077;-72
2023/02/27 21:44:26;;;;;;;5.20;1.73;;;-1.10;99.90;;;;;;5021794;28;25052;-72
2023/02/27 21:46:54;;;;;;;2.35;1.02;;;-1.10;99.90;;;;;;5039827;28;25042;-72
2023/02/27 21:49:27;;;;;;;2.47;0.93;;;-1.10;99.90;;;;;;5039362;28;25077;-72
2023/02/27 21:51:54;;;;;;;2.95;1.17;;;-1.10;99.90;;;;;;5021666;28;25072;-72
2023/02/27 21:54:22;;;;;;;3.33;1.10;;;-1.10;99.90;;;;;;5039508;28;25071;-72
2023/02/27 21:56:49;;;;;;;2.72;0.95;;;-1.10;99.90;;;;;;5021614;28;25054;-72
2023/02/27 21:59:18;;;;;;;3.88;1.30;;;-1.10;99.90;;;;;;5021706;28;25059;-72
2023/02/27 22:01:46;;;;;;;6.03;2.10;;;-1.10;99.90;;;;;;5039001;28;25083;-72
2023/02/27 22:04:15;;;;;;;4.30;1.40;;;-1.10;99.90;;;;;;5039264;28;25109;-72
2023/02/27 22:06:43;;;;;;;5.38;1.40;;;-1.10;99.90;;;;;;5021399;28;25102;-72
2023/02/27 22:09:10;;;;;;;3.10;1.70;;;-1.10;99.90;;;;;;5021466;28;25069;-72
2023/02/27 22:11:39;;;;;;;4.18;1.10;;;-1.10;99.90;;;;;;5038403;28;25063;-72
2023/02/27 22:14:08;;;;;;;2.90;1.13;;;-1.20;99.90;;;;;;5021218;28;25116;-72
2023/02/27 22:16:36;;;;;;;3.58;1.30;;;-1.20;99.90;;;;;;5021165;28;25063;-72
2023/02/27 22:19:09;;;;;;;6.28;2.15;;;-1.20;99.90;;;;;;5038559;28;25073;-72
2023/02/27 22:21:37;;;;;;;4.93;1.50;;;-1.30;99.90;;;;;;5039204;28;25100;-72
2023/02/27 22:24:05;;;;;;;3.78;1.60;;;-1.30;99.90;;;;;;5039194;28;25090;-72
2023/02/27 22:26:32;;;;;;;3.67;1.83;;;-1.30;99.90;;;;;;5037502;28;25076;-72
2023/02/27 22:29:00;;;;;;;4.55;1.73;;;-1.30;99.90;;;;;;5020909;28;25052;-72
2023/02/27 22:31:29;;;;;;;6.35;2.17;;;-1.30;99.90;;;;;;5021135;28;25125;-72
2023/02/27 22:34:01;;;;;;;6.68;2.58;;;-1.30;99.90;;;;;;5038395;28;25136;-72
2023/02/27 22:36:30;;;;;;;3.92;1.77;;;-1.30;99.90;;;;;;5038593;28;25076;-72
2023/02/27 22:38:58;;;;;;;4.65;2.00;;;-1.40;99.90;;;;;;5026951;28;25149;-72
2023/02/27 22:41:28;;;;;;;5.85;2.50;;;-1.40;99.90;;;;;;5057832;28;25088;-72
2023/02/27 22:43:56;;;;;;;4.03;2.88;;;-1.50;99.90;;;;;;5058744;28;25083;-72
2023/02/27 22:46:30;;;;;;;7.65;3.10;;;-1.60;99.90;;;;;;5058323;28;25104;-72
2023/02/27 22:49:04;;;;;;;6.65;2.97;;;-1.60;99.90;;;;;;5057767;28;25095;-72
2023/02/27 22:51:31;;;;;;;5.47;3.10;;;-1.70;99.90;;;;;;5058622;28;25122;-72
2023/02/27 22:54:04;;;;;;;6.32;3.20;;;-1.70;99.90;;;;;;5057553;28;25062;-72
2023/02/27 22:56:32;;;;;;;4.97;2.78;;;-1.80;99.90;;;;;;5058343;28;25070;-72
2023/02/27 22:58:59;;;;;;;5.18;2.53;;;-1.80;99.90;;;;;;5057858;28;25143;-72
2023/02/27 23:01:29;;;;;;;5.75;2.60;;;-1.90;99.90;;;;;;5056809;28;25059;-72
2023/02/27 23:04:02;;;;;;;5.82;2.50;;;-1.90;99.90;;;;;;5057765;28;25077;-72
2023/02/27 23:06:32;;;;;;;3.90;2.10;;;-1.90;99.90;;;;;;5056843;28;25102;-72
2023/02/27 23:09:00;;;;;;;4.85;2.65;;;-2.00;99.90;;;;;;5056920;28;25073;-72
2023/02/27 23:11:28;;;;;;;13.77;4.10;;;-2.00;99.90;;;;;;5058280;28;25078;-72
2023/02/27 23:13:55;;;;;;;12.32;4.70;;;-2.00;99.90;;;;;;5057909;28;25107;-72
2023/02/27 23:16:23;;;;;;;12.60;5.20;;;-2.00;99.90;;;;;;5058047;28;25081;-72
2023/02/27 23:18:54;;;;;;;10.57;3.72;;;-2.00;99.90;;;;;;5056288;28;25097;-72
2023/02/27 23:21:24;;;;;;;12.30;4.72;;;-2.00;99.90;;;;;;5057486;28;25082;-72
2023/02/27 23:23:56;;;;;;;7.18;2.75;;;-2.00;99.90;;;;;;5056574;28;25086;-72
2023/02/27 23:26:27;;;;;;;3.55;1.80;;;-2.00;99.90;;;;;;5058060;28;25076;-72
2023/02/27 23:28:56;;;;;;;6.38;2.25;;;-2.00;99.90;;;;;;5057544;28;25061;-70
2023/02/27 23:31:24;;;;;;;4.55;2.03;;;-2.00;99.90;;;;;;5056215;28;25073;-70
2023/02/27 23:33:51;;;;;;;5.55;1.60;;;-2.00;99.90;;;;;;5057200;28;25128;-70
2023/02/27 23:36:19;;;;;;;2.72;1.30;;;-2.00;99.90;;;;;;5057134;28;25066;-72
2023/02/27 23:38:46;;;;;;;3.45;1.48;;;-1.90;99.90;;;;;;5054022;28;25113;-73
2023/02/27 23:41:19;;;;;;;4.63;1.27;;;-2.00;99.90;;;;;;5037430;28;25145;-72
2023/02/27 23:43:51;;;;;;;4.07;1.48;;;-2.00;99.90;;;;;;5037677;28;25069;-72
2023/02/27 23:46:19;;;;;;;8.30;2.15;;;-1.90;99.90;;;;;;5037135;28;25135;-73
2023/02/27 23:48:47;;;;;;;3.38;1.70;;;-1.90;99.90;;;;;;5036985;28;25085;-72
2023/02/27 23:51:15;;;;;;;3.97;1.65;;;-1.90;99.90;;;;;;5019889;28;25119;-72
2023/02/27 23:53:42;;;;;;;3.10;1.50;;;-1.80;99.90;;;;;;5019382;28;25081;-72
2023/02/27 23:56:22;;;;;;;3.08;1.55;;;-1.70;99.90;;;;;;5019701;28;25061;-72
2023/02/27 23:58:55;;;;;;;3.88;1.60;;;-1.70;99.90;;;;;;5036778;28;25054;-72
